Time;durP1;ratioP1;P1;durP2;ratioP2;P2;SDS_P1;SDS_P2;PMS_P1;PMS_P2;Temp;Humidity;BMP_temperature;BMP_pressure;BME280_temperature;BME280_humidity;BME280_pressure;Samples;Min_cycle;Max_cycle;Signal;HPM_P1;HPM_P2
2023/07/14 00:01:55;;;;;;;13.68;7.32;;;;;;;23.32;100.00;97203.34;5065574;28;20115;-76
2023/07/14 00:04:27;;;;;;;14.98;8.40;;;;;;;23.33;100.00;97218.66;5048205;28;20557;-77
2023/07/14 00:06:52;;;;;;;;;;;;;;;23.31;100.00;97194.28;5059513;28;20037;-76
2023/07/14 00:09:29;;;;;;;24.77;8.43;;;;;;;23.27;100.00;97194.81;5053171;28;19919;-76
2023/07/14 00:11:55;;;;;;;14.27;7.82;;;;;;;23.30;100.00;97186.28;5059808;28;20023;-76
2023/07/14 00:14:21;;;;;;;18.20;7.88;;;;;;;23.35;100.00;97205.69;5072787;28;20475;-76
2023/07/14 00:16:46;;;;;;;12.93;6.90;;;;;;;23.33;100.00;97196.81;5074450;28;20410;-76
2023/07/14 00:19:13;;;;;;;13.55;7.20;;;;;;;23.40;100.00;97197.84;5074189;28;20048;-75
2023/07/14 00:21:39;;;;;;;11.35;6.80;;;;;;;23.42;100.00;97179.38;5060915;28;20028;-76
2023/07/14 00:24:11;;;;;;;14.02;7.38;;;;;;;23.46;100.00;97186.19;5053120;28;20036;-75
2023/07/14 00:26:37;;;;;;;17.63;7.50;;;;;;;23.48;100.00;97184.09;5053123;28;20029;-75
2023/07/14 00:29:34;;;;;;;11.13;7.32;;;;;;;23.47;100.00;97199.63;5036130;28;20052;-76
2023/07/14 00:31:59;;;;;;;11.77;7.18;;;;;;;23.44;100.00;97175.41;5049100;28;20036;-75
2023/07/14 00:34:25;;;;;;;13.65;7.18;;;;;;;23.43;100.00;97175.63;5052662;28;20470;-76
2023/07/14 00:36:51;;;;;;;12.95;8.15;;;;;;;23.44;100.00;97193.72;5062400;28;20040;-75
2023/07/14 00:39:17;;;;;;;14.90;8.18;;;;;;;23.44;100.00;97160.94;5069352;28;20047;-76
2023/07/14 00:41:42;;;;;;;12.85;8.25;;;;;;;23.26;100.00;97165.84;5052089;28;20111;-76
2023/07/14 00:44:15;;;;;;;21.23;8.88;;;;;;;23.21;100.00;97175.44;5036003;28;20029;-75
2023/07/14 00:46:41;;;;;;;13.35;7.22;;;;;;;23.16;100.00;97166.91;5064377;28;20023;-76
2023/07/14 00:49:20;;;;;;;16.92;7.85;;;;;;;23.22;100.00;97162.63;5055971;28;20033;-75
2023/07/14 00:51:46;;;;;;;13.40;7.43;;;;;;;23.23;100.00;97159.72;5055914;28;20123;-75
2023/07/14 00:54:28;;;;;;;13.32;7.25;;;;;;;23.26;100.00;97152.22;5056777;28;20029;-75
2023/07/14 00:56:55;;;;;;;11.40;6.97;;;;;;;23.32;100.00;97148.75;5052496;28;20036;-75
2023/07/14 00:59:32;;;;;;;19.55;7.28;;;;;;;23.39;100.00;97141.50;5044306;28;20079;-75
2023/07/14 01:02:17;;;;;;;11.88;6.93;;;;;;;23.47;100.00;97171.50;5058811;28;20052;-76
2023/07/14 01:05:00;;;;;;;14.02;6.47;;;;;;;23.45;100.00;97168.09;5055308;28;20028;-76
2023/07/14 01:07:38;;;;;;;13.05;7.47;;;;;;;23.41;100.00;97199.53;5063758;28;20025;-76
2023/07/14 01:10:04;;;;;;;13.32;6.88;;;;;;;23.29;100.00;97198.25;5072259;28;20025;-76
2023/07/14 01:12:31;;;;;;;14.55;8.10;;;;;;;23.19;100.00;97193.84;5038965;28;20115;-76
2023/07/14 01:14:57;;;;;;;13.10;7.90;;;;;;;22.95;100.00;97201.38;5066458;28;20052;-76
2023/07/14 01:17:22;;;;;;;13.70;7.78;;;;;;;22.83;100.00;97184.56;5051894;28;20028;-76
2023/07/14 01:19:52;;;;;;;10.13;7.10;;;;;;;22.70;100.00;97200.69;5047376;28;20104;-76
2023/07/14 01:22:44;;;;;;;15.52;7.85;;;;;;;22.66;100.00;97199.34;5063717;28;20021;-76
2023/07/14 01:25:41;;;;;;;20.90;8.30;;;;;;;22.64;100.00;97198.63;5065697;28;20060;-76
2023/07/14 01:28:10;;;;;;;14.82;8.05;;;;;;;22.55;100.00;97186.03;5073085;28;20136;-76
2023/07/14 01:30:36;;;;;;;13.32;7.30;;;;;;;22.54;100.00;97190.69;5055252;28;20029;-76
2023/07/14 01:33:04;;;;;;;11.30;7.45;;;;;;;22.52;100.00;97189.13;5061336;28;20487;-76
2023/07/14 01:35:38;;;;;;;18.40;7.75;;;;;;;22.55;100.00;97188.78;5067260;28;20395;-76
2023/07/14 01:38:03;;;;;;;13.52;7.30;;;;;;;22.52;100.00;97189.13;5052804;28;20495;-75
2023/07/14 01:40:29;;;;;;;13.05;7.75;;;;;;;22.52;100.00;97186.41;5054942;28;20027;-76
2023/07/14 01:42:58;;;;;;;15.40;7.93;;;;;;;22.55;100.00;97200.53;5045243;28;20466;-76
2023/07/14 01:45:26;;;;;;;10.38;7.15;;;;;;;22.50;100.00;97194.78;5058455;28;20104;-76
2023/07/14 01:47:54;;;;;;;16.00;7.95;;;;;;;22.52;100.00;97208.22;5052944;28;20036;-76
2023/07/14 01:50:42;;;;;;;12.60;7.05;;;;;;;22.50;100.00;97229.38;5071345;28;20020;-76
2023/07/14 01:53:21;;;;;;;17.52;7.82;;;;;;;22.52;100.00;97235.47;5069073;28;20043;-76
2023/07/14 01:55:48;;;;;;;15.05;7.55;;;;;;;22.55;100.00;97246.03;5051173;28;20431;-76
2023/07/14 01:58:23;;;;;;;17.92;6.88;;;;;;;22.54;100.00;97261.56;5070873;28;20039;-76
2023/07/14 02:00:50;;;;;;;18.65;6.95;;;;;;;22.58;100.00;97281.13;5068685;28;20028;-77
2023/07/14 02:03:38;;;;;;;15.93;7.28;;;;;;;22.59;100.00;97297.31;5054185;28;20056;-77
2023/07/14 02:06:04;;;;;;;12.88;7.63;;;;;;;22.52;100.00;97292.72;5055735;28;20458;-77
2023/07/14 02:08:30;;;;;;;13.00;7.55;;;;;;;22.57;100.00;97309.44;5064678;28;20119;-76
2023/07/14 02:10:55;;;;;;;12.32;7.13;;;;;;;22.55;100.00;97315.06;5043913;28;20032;-76
2023/07/14 02:13:22;;;;;;;18.13;7.85;;;;;;;22.59;100.00;97323.75;5064194;28;20032;-76
2023/07/14 02:15:48;;;;;;;16.60;7.78;;;;;;;22.58;100.00;97332.94;5054250;28;20059;-76
2023/07/14 02:18:16;;;;;;;14.52;7.38;;;;;;;22.59;100.00;97345.56;5068440;28;20491;-77
2023/07/14 02:20:43;;;;;;;16.33;7.53;;;;;;;22.61;100.00;97351.69;5065523;28;20148;-77
2023/07/14 02:23:12;;;;;;;11.25;6.45;;;;;;;22.55;100.00;97349.63;5067772;28;20033;-77
2023/07/14 02:25:43;;;;;;;12.30;6.78;;;;;;;22.55;100.00;97349.63;5039803;28;20042;-77
2023/07/14 02:28:12;;;;;;;11.90;7.80;;;;;;;22.60;100.00;97347.25;5059539;28;20059;-76
2023/07/14 02:30:38;;;;;;;31.58;17.88;;;;;;;22.62;100.00;97351.50;5057431;28;20039;-77
2023/07/14 02:33:17;;;;;;;20.50;10.45;;;;;;;22.70;100.00;97356.13;5068302;28;20029;-77
2023/07/14 02:36:12;;;;;;;47.30;29.08;;;;;;;22.80;100.00;97370.41;5050504;28;20029;-77
2023/07/14 02:38:39;;;;;;;15.68;9.20;;;;;;;22.83;100.00;97358.28;5064214;28;20086;-77
2023/07/14 02:41:39;;;;;;;80.38;45.75;;;;;;;22.95;100.00;97365.91;5053744;28;20035;-77
2023/07/14 02:44:07;;;;;;;19.17;11.02;;;;;;;22.98;100.00;97368.28;5029035;28;20048;-77
2023/07/14 02:46:49;;;;;;;21.13;10.95;;;;;;;23.08;100.00;97377.13;5046176;28;20028;-77
2023/07/14 02:49:21;;;;;;;55.03;33.13;;;;;;;23.10;100.00;97366.03;5067103;28;20032;-78
2023/07/14 02:51:49;;;;;;;34.38;20.00;;;;;;;23.16;100.00;97378.97;5057747;28;20103;-78
2023/07/14 02:54:32;;;;;;;16.02;7.75;;;;;;;23.11;100.00;97390.41;5035565;28;20478;-77
2023/07/14 02:56:58;;;;;;;12.75;7.13;;;;;;;23.11;100.00;97384.09;5059745;28;20522;-76
2023/07/14 02:59:23;;;;;;;16.08;7.18;;;;;;;23.18;100.00;97415.13;5069916;28;20025;-76
2023/07/14 03:01:49;;;;;;;10.85;7.15;;;;;;;23.21;100.00;97420.22;5071346;28;20440;-77
2023/07/14 03:04:15;;;;;;;19.75;7.43;;;;;;;23.19;100.00;97423.13;5060269;28;20033;-77
2023/07/14 03:06:40;;;;;;;16.65;7.35;;;;;;;23.22;100.00;97436.41;5050223;28;20063;-77
2023/07/14 03:09:06;;;;;;;17.77;7.13;;;;;;;23.18;100.00;97424.16;5050813;28;20037;-77
2023/07/14 03:11:31;;;;;;;17.42;6.75;;;;;;;23.29;100.00;97424.81;5054641;28;20025;-77
2023/07/14 03:13:57;;;;;;;12.25;6.45;;;;;;;23.34;100.00;97438.78;5062869;28;20032;-77
2023/07/14 03:16:22;;;;;;;15.20;7.20;;;;;;;23.37;100.00;97449.34;5067413;28;20031;-77
2023/07/14 03:18:48;;;;;;;15.40;6.85;;;;;;;23.41;100.00;97450.75;5033297;28;20479;-77
2023/07/14 03:21:14;;;;;;;14.70;5.97;;;;;;;23.36;100.00;97464.00;5049483;28;20017;-77
2023/07/14 03:23:39;;;;;;;14.30;6.57;;;;;;;23.32;100.00;97462.69;5038694;28;20464;-77
2023/07/14 03:26:08;;;;;;;25.13;12.52;;;;;;;23.37;100.00;97463.84;5052688;28;20376;-77
2023/07/14 03:28:34;;;;;;;35.55;14.93;;;;;;;23.46;100.00;97483.81;5069381;28;20036;-77
2023/07/14 03:31:02;;;;;;;23.48;9.38;;;;;;;23.56;100.00;97492.66;5069616;28;20020;-77
2023/07/14 03:33:30;;;;;;;14.45;7.15;;;;;;;23.70;100.00;97495.47;5066051;28;20040;-77
2023/07/14 03:35:56;;;;;;;13.95;6.70;;;;;;;23.82;100.00;97501.38;5057911;28;20040;-76
2023/07/14 03:38:21;;;;;;;13.30;6.57;;;;;;;23.94;100.00;97508.16;5050377;28;20029;-76
2023/07/14 03:40:47;;;;;;;18.05;9.63;;;;;;;24.04;100.00;97519.72;5062794;28;20054;-76
2023/07/14 03:43:13;;;;;;;15.60;7.03;;;;;;;24.21;100.00;97525.97;5069597;28;20059;-76
2023/07/14 03:45:38;;;;;;;11.57;7.30;;;;;;;24.56;100.00;97535.47;5069714;28;20024;-76
2023/07/14 03:48:04;;;;;;;20.92;9.98;;;;;;;24.75;100.00;97555.00;5054504;28;20558;-75
2023/07/14 03:50:30;;;;;;;15.70;7.13;;;;;;;24.88;100.00;97569.97;5042704;28;20030;-76
2023/07/14 03:52:56;;;;;;;12.98;6.72;;;;;;;24.97;100.00;97583.41;5062550;28;20109;-77
2023/07/14 03:55:22;;;;;;;13.07;7.90;;;;;;;25.07;100.00;97578.50;5065726;28;20115;-77
2023/07/14 03:57:47;;;;;;;21.65;9.05;;;;;;;25.22;100.00;97586.78;5045108;28;20034;-76
2023/07/14 04:00:17;;;;;;;45.03;14.30;;;;;;;25.33;100.00;97611.81;5060416;28;20021;-77
2023/07/14 04:02:43;;;;;;;29.55;10.77;;;;;;;25.48;100.00;97624.69;5060986;28;20562;-77
2023/07/14 04:05:10;;;;;;;37.67;9.18;;;;;;;25.64;100.00;97635.53;5059654;28;20044;-76
2023/07/14 04:07:37;;;;;;;22.60;8.35;;;;;;;25.86;100.00;97645.56;5069054;28;20094;-76
2023/07/14 04:10:04;;;;;;;24.38;13.20;;;;;;;26.02;100.00;97650.88;5067672;28;20093;-77
2023/07/14 04:12:33;;;;;;;17.73;8.57;;;;;;;26.17;100.00;97662.72;5049822;28;20040;-76
2023/07/14 04:14:59;;;;;;;22.60;8.82;;;;;;;26.29;100.00;97685.88;5032635;28;20028;-76
2023/07/14 04:17:24;;;;;;;18.60;8.30;;;;;;;26.29;100.00;97707.84;5067433;28;20103;-76
2023/07/14 04:19:50;;;;;;;16.63;9.00;;;;;;;26.42;100.00;97717.28;5048913;28;20468;-78
2023/07/14 04:22:17;;;;;;;20.15;8.13;;;;;;;26.45;100.00;97733.38;5048212;28;20468;-76
2023/07/14 04:24:43;;;;;;;23.65;7.22;;;;;;;26.58;100.00;97744.53;5050036;28;20091;-77
2023/07/14 04:27:08;;;;;;;24.00;9.48;;;;;;;26.54;100.00;97741.31;5058065;28;20124;-76
2023/07/14 04:29:34;;;;;;;24.88;7.45;;;;;;;26.35;100.00;97748.22;5041195;28;20047;-77
2023/07/14 04:32:00;;;;;;;21.10;7.63;;;;;;;26.33;100.00;97753.03;5032712;28;20063;-77
2023/07/14 04:34:29;;;;;;;22.48;7.70;;;;;;;26.31;100.00;97759.75;5057754;28;20483;-76
2023/07/14 04:36:55;;;;;;;17.92;7.93;;;;;;;26.33;100.00;97761.25;5055579;28;20115;-76
2023/07/14 04:39:23;;;;;;;24.08;7.85;;;;;;;26.37;100.00;97773.56;5059848;28;20032;-76
2023/07/14 04:41:49;;;;;;;15.98;7.65;;;;;;;26.34;100.00;97778.59;5044235;28;20052;-76
2023/07/14 04:44:16;;;;;;;23.10;8.43;;;;;;;26.44;100.00;97786.53;5055942;28;20424;-84
2023/07/14 04:46:42;;;;;;;31.98;9.73;;;;;;;26.51;100.00;97788.34;5067853;28;20465;-77
2023/07/14 04:49:09;;;;;;;14.40;7.75;;;;;;;26.54;100.00;97790.72;5065333;28;20024;-78
2023/07/14 04:51:35;;;;;;;23.17;7.93;;;;;;;26.58;100.00;97793.94;5055773;28;20425;-77
2023/07/14 04:54:01;;;;;;;19.88;9.57;;;;;;;26.51;100.00;97799.34;5059634;28;20090;-78
2023/07/14 04:56:27;;;;;;;21.73;8.25;;;;;;;26.59;100.00;97812.09;5054984;28;20032;-77
2023/07/14 04:58:52;;;;;;;16.75;7.88;;;;;;;26.84;100.00;97795.19;5052278;28;20029;-78
2023/07/14 05:01:18;;;;;;;36.88;9.27;;;;;;;27.20;100.00;97783.34;5052774;28;20017;-79
2023/07/14 05:03:44;;;;;;;15.75;8.20;;;;;;;27.39;100.00;97791.84;5052946;28;20036;-81
2023/07/14 05:06:10;;;;;;;18.70;8.27;;;;;;;27.64;100.00;97788.75;5064863;28;20115;-81
2023/07/14 05:08:36;;;;;;;20.35;8.38;;;;;;;27.99;100.00;97785.06;5035759;28;20017;-82
2023/07/14 05:11:02;;;;;;;14.30;8.40;;;;;;;28.18;100.00;97789.88;5052066;28;20036;-81
2023/07/14 05:13:27;;;;;;;19.75;7.82;;;;;;;28.22;100.00;97776.59;5052133;28;20404;-81
2023/07/14 05:15:55;;;;;;;15.13;7.97;;;;;;;27.98;100.00;97775.09;5051733;28;20032;-81
2023/07/14 05:18:21;;;;;;;29.80;9.40;;;;;;;27.92;100.00;97789.66;5055331;28;20028;-81
2023/07/14 05:20:46;;;;;;;19.40;10.55;;;;;;;28.34;100.00;97772.22;5054599;28;20021;-83
2023/07/14 05:23:12;;;;;;;17.95;8.82;;;;;;;28.89;100.00;97776.81;5070156;28;20487;-83
2023/07/14 05:25:38;;;;;;;20.17;8.15;;;;;;;28.81;100.00;97768.72;5055522;28;20048;-80
2023/07/14 05:28:04;;;;;;;23.33;8.70;;;;;;;29.65;100.00;97763.75;5050619;28;20053;-79
2023/07/14 05:30:30;;;;;;;27.23;9.30;;;;;;;30.52;100.00;97764.41;5066057;28;20065;-82
2023/07/14 05:32:55;;;;;;;38.08;12.40;;;;;;;31.29;100.00;97767.16;5049217;28;20117;-79
2023/07/14 05:35:21;;;;;;;26.63;10.82;;;;;;;31.93;98.51;97753.13;5055892;28;20123;-80
2023/07/14 05:37:47;;;;;;;17.98;8.25;;;;;;;31.93;95.72;97749.56;5068627;28;20125;-82
2023/07/14 05:40:14;;;;;;;25.27;9.18;;;;;;;32.24;94.10;97743.13;5064493;28;20044;-80
2023/07/14 05:42:40;;;;;;;15.57;9.07;;;;;;;32.66;91.41;97729.31;5037401;28;20039;-78
2023/07/14 05:45:07;;;;;;;22.67;8.68;;;;;;;32.59;89.83;97730.44;5068503;28;20032;-78
2023/07/14 05:47:35;;;;;;;22.33;8.02;;;;;;;32.23;91.14;97731.22;5069273;28;20032;-81
2023/07/14 05:50:01;;;;;;;14.82;7.95;;;;;;;32.08;92.89;97728.78;5056927;28;20028;-77
2023/07/14 05:52:27;;;;;;;19.20;9.30;;;;;;;32.21;92.81;97711.19;5032011;28;20407;-79
2023/07/14 05:54:52;;;;;;;15.02;8.25;;;;;;;32.47;90.19;97716.47;5047075;28;20040;-80
2023/07/14 05:57:18;;;;;;;17.35;8.90;;;;;;;33.33;85.70;97727.41;5056299;28;20029;-77
2023/07/14 05:59:43;;;;;;;13.18;8.43;;;;;;;33.09;85.63;97720.06;5053935;28;20032;-79
2023/07/14 06:02:14;;;;;;;27.55;11.05;;;;;;;33.90;80.47;97720.38;5058739;28;20029;-79
2023/07/14 06:04:41;;;;;;;20.58;9.18;;;;;;;34.67;74.12;97710.09;5065277;28;20028;-80
2023/07/14 06:07:07;;;;;;;22.58;8.68;;;;;;;35.29;69.38;97702.78;5051969;28;20039;-79
2023/07/14 06:09:37;;;;;;;26.08;10.13;;;;;;;35.23;70.11;97712.13;5068487;28;20036;-76
2023/07/14 06:12:04;;;;;;;19.55;9.73;;;;;;;33.44;83.61;97725.78;5039182;28;20115;-78
2023/07/14 06:14:40;;;;;;;27.00;9.80;;;;;;;33.74;82.32;97727.47;5054330;28;20063;-78
2023/07/14 06:17:08;;;;;;;17.30;10.00;;;;;;;33.58;86.78;97724.50;5055460;28;20036;-78
2023/07/14 06:19:34;;;;;;;26.10;9.63;;;;;;;34.11;82.78;97724.56;5063564;28;20020;-78
2023/07/14 06:21:59;;;;;;;21.95;11.90;;;;;;;34.33;85.52;97711.78;5063867;28;20024;-78
2023/07/14 06:24:25;;;;;;;19.13;12.98;;;;;;;34.38;84.04;97720.22;5037400;28;20116;-78
2023/07/14 06:26:53;;;;;;;24.42;13.32;;;;;;;34.52;82.21;97699.41;5040230;28;20117;-78
2023/07/14 06:29:19;;;;;;;22.35;13.50;;;;;;;34.36;81.90;97699.31;5066203;28;20048;-78
2023/07/14 06:31:45;;;;;;;19.02;9.23;;;;;;;33.16;82.57;97696.69;5044457;28;20392;-79
2023/07/14 06:34:10;;;;;;;17.75;9.90;;;;;;;34.33;82.06;97699.81;5067075;28;20332;-79
2023/07/14 06:36:36;;;;;;;19.42;12.77;;;;;;;35.25;78.48;97693.25;5051618;28;20036;-78
2023/07/14 06:39:04;;;;;;;20.35;9.90;;;;;;;35.82;69.66;97681.00;5052720;28;20099;-78
2023/07/14 06:41:29;;;;;;;18.45;9.35;;;;;;;35.97;69.46;97688.75;5050321;28;20436;-79
2023/07/14 06:43:55;;;;;;;16.95;10.25;;;;;;;36.32;68.10;97688.53;5058996;28;20044;-79
2023/07/14 06:46:20;;;;;;;20.20;10.38;;;;;;;36.57;63.38;97685.31;5059563;28;20115;-79
2023/07/14 06:48:46;;;;;;;21.33;9.90;;;;;;;36.46;63.45;97678.69;5061400;28;20024;-79
2023/07/14 06:51:15;;;;;;;24.75;10.38;;;;;;;36.18;65.02;97687.19;5054891;28;20064;-79
2023/07/14 06:53:41;;;;;;;18.95;10.30;;;;;;;35.73;64.92;97685.28;5059292;28;20465;-78
2023/07/14 06:56:10;;;;;;;19.33;10.55;;;;;;;36.06;69.21;97689.19;5047527;28;20029;-79
2023/07/14 06:58:35;;;;;;;36.05;24.60;;;;;;;36.54;60.75;97686.66;5040317;28;20097;-78
2023/07/14 07:01:02;;;;;;;15.38;10.85;;;;;;;35.57;65.49;97680.53;5061461;28;20025;-79
2023/07/14 07:03:27;;;;;;;19.48;9.05;;;;;;;36.04;62.19;97680.22;5049232;28;20119;-80
2023/07/14 07:05:54;;;;;;;14.80;9.57;;;;;;;36.31;62.47;97675.69;5064265;28;20116;-79
2023/07/14 07:08:20;;;;;;;45.13;14.05;;;;;;;36.81;61.54;97681.19;5063317;28;20083;-80
2023/07/14 07:10:45;;;;;;;15.23;9.57;;;;;;;37.24;57.25;97677.56;5048869;28;20021;-81
2023/07/14 07:13:12;;;;;;;14.48;8.85;;;;;;;37.28;56.80;97665.63;5062865;28;20029;-81
2023/07/14 07:15:38;;;;;;;21.27;9.48;;;;;;;37.61;55.34;97669.31;5059416;28;20052;-81
2023/07/14 07:18:04;;;;;;;16.75;9.27;;;;;;;37.60;54.21;97662.03;5059060;28;20031;-81
2023/07/14 07:20:29;;;;;;;12.90;8.90;;;;;;;38.09;53.14;97671.16;5062042;28;20033;-80
2023/07/14 07:22:55;;;;;;;21.60;8.93;;;;;;;38.18;52.35;97664.00;5064531;28;20473;-82
2023/07/14 07:25:20;;;;;;;19.73;8.82;;;;;;;38.32;51.30;97659.59;5063709;28;20028;-81
2023/07/14 07:27:46;;;;;;;24.98;9.18;;;;;;;38.11;51.76;97650.25;5054325;28;20098;-82
2023/07/14 07:30:11;;;;;;;17.85;9.43;;;;;;;37.82;51.38;97655.28;5064763;28;20476;-81
2023/07/14 07:32:40;;;;;;;15.52;9.02;;;;;;;37.86;51.16;97656.44;5047086;28;20132;-81
2023/07/14 07:35:06;;;;;;;21.77;9.98;;;;;;;38.32;50.53;97656.81;5056653;28;20054;-83
2023/07/14 07:37:32;;;;;;;14.15;8.80;;;;;;;38.66;49.62;97648.94;5041460;28;20060;-81
2023/07/14 07:39:58;;;;;;;19.13;9.73;;;;;;;38.53;48.54;97650.25;5059300;28;20063;-84
2023/07/14 07:42:23;;;;;;;19.77;10.48;;;;;;;38.83;50.00;97635.59;5051020;28;20083;-83
2023/07/14 07:44:49;;;;;;;23.23;9.82;;;;;;;38.88;49.17;97641.25;5046749;28;20033;-80
2023/07/14 07:47:15;;;;;;;24.13;10.13;;;;;;;39.18;50.19;97637.72;5055097;28;20471;-81
2023/07/14 07:49:41;;;;;;;23.48;9.02;;;;;;;39.20;47.89;97635.47;5045413;28;20024;-81
2023/07/14 07:52:07;;;;;;;22.42;8.77;;;;;;;39.85;46.00;97632.81;5056013;28;20064;-80
2023/07/14 07:54:32;;;;;;;12.75;9.65;;;;;;;40.32;45.43;97629.75;5046882;28;20029;-80
2023/07/14 07:56:58;;;;;;;21.35;9.88;;;;;;;40.61;45.05;97627.16;5061519;28;20048;-80
2023/07/14 07:59:23;;;;;;;21.70;9.30;;;;;;;40.48;44.05;97622.97;5038405;28;20035;-80
2023/07/14 08:01:49;;;;;;;19.25;9.20;;;;;;;40.39;43.67;97618.22;5046666;28;20036;-81
2023/07/14 08:04:16;;;;;;;18.25;9.55;;;;;;;40.57;44.20;97620.44;5046512;28;20419;-80
2023/07/14 08:06:42;;;;;;;15.90;8.90;;;;;;;39.31;43.44;97614.81;5046510;28;20507;-79
2023/07/14 08:09:08;;;;;;;20.60;9.40;;;;;;;39.27;44.76;97616.47;5047600;28;20546;-78
2023/07/14 08:11:34;;;;;;;17.77;9.02;;;;;;;39.66;43.72;97611.19;5029890;28;20029;-81
2023/07/14 08:14:02;;;;;;;14.23;8.55;;;;;;;40.26;42.47;97601.97;5051348;28;20047;-82
2023/07/14 08:16:28;;;;;;;18.65;10.85;;;;;;;39.96;42.92;97597.25;5066359;28;20104;-81
2023/07/14 08:18:54;;;;;;;21.17;10.23;;;;;;;39.91;42.10;97594.41;5043593;28;20033;-82
2023/07/14 08:21:19;;;;;;;21.08;8.13;;;;;;;39.69;42.51;97591.91;5064381;28;20038;-81
2023/07/14 08:23:45;;;;;;;13.73;8.52;;;;;;;37.63;45.78;97598.13;5052611;28;20032;-81
2023/07/14 08:26:12;;;;;;;12.05;8.20;;;;;;;37.73;46.89;97592.63;5050950;28;20302;-81
2023/07/14 08:28:38;;;;;;;15.70;8.95;;;;;;;37.93;47.41;97601.19;5060575;28;20110;-82
2023/07/14 08:31:06;;;;;;;17.65;8.70;;;;;;;39.41;44.61;97595.25;5056199;28;20048;-82
2023/07/14 08:33:32;;;;;;;12.65;8.75;;;;;;;40.24;42.20;97576.19;5051530;28;20040;-82
2023/07/14 08:36:00;;;;;;;19.88;8.45;;;;;;;40.70;41.23;97574.94;5044993;28;20047;-83
2023/07/14 08:38:27;;;;;;;17.90;8.93;;;;;;;40.06;41.60;97572.81;5034343;28;20480;-82
2023/07/14 08:40:54;;;;;;;22.48;7.72;;;;;;;41.11;39.54;97576.44;5047623;28;20032;-81
2023/07/14 08:43:38;;;;;;;20.70;8.68;;;;;;;41.51;39.06;97572.53;5063975;28;20029;-82
2023/07/14 08:46:16;;;;;;;15.27;8.00;;;;;;;42.01;38.12;97564.81;5059870;28;20031;-83
2023/07/14 08:48:52;;;;;;;17.77;7.85;;;;;;;43.10;36.43;97566.66;5063600;28;20086;-83
2023/07/14 08:51:26;;;;;;;15.32;7.72;;;;;;;42.05;36.51;97565.91;5062336;28;20051;-82
2023/07/14 08:53:55;;;;;;;14.45;7.90;;;;;;;41.95;36.82;97557.56;5052844;28;20534;-81
2023/07/14 08:56:21;;;;;;;17.55;7.38;;;;;;;42.38;35.83;97555.75;5062196;28;20423;-82
2023/07/14 08:58:48;;;;;;;12.93;7.38;;;;;;;40.41;38.52;97566.31;5057304;28;20023;-82
2023/07/14 09:01:24;;;;;;;15.60;8.88;;;;;;;41.24;37.96;97568.50;5069780;28;20024;-82
2023/07/14 09:03:52;;;;;;;18.15;8.52;;;;;;;41.72;37.55;97561.16;5053058;28;20082;-82
2023/07/14 09:06:33;;;;;;;12.38;7.07;;;;;;;41.23;37.26;97567.66;5056327;28;20068;-82
2023/07/14 09:08:59;;;;;;;14.00;6.45;;;;;;;40.76;37.31;97556.13;5059367;28;20025;-82
2023/07/14 09:11:37;;;;;;;14.43;6.95;;;;;;;40.48;38.01;97549.19;5056288;28;20024;-82
2023/07/14 09:14:14;;;;;;;11.75;7.72;;;;;;;40.90;37.40;97558.00;5070590;28;20491;-82
2023/07/14 09:16:48;;;;;;;14.55;7.28;;;;;;;40.25;38.35;97549.81;5047370;28;20457;-82
2023/07/14 09:19:32;;;;;;;20.08;7.50;;;;;;;41.59;37.10;97554.22;5067145;28;20419;-83
2023/07/14 09:22:03;;;;;;;15.13;7.78;;;;;;;41.87;37.23;97555.41;5055989;28;20036;-81
2023/07/14 09:24:52;;;;;;;15.48;7.40;;;;;;;40.87;37.38;97554.91;5064137;28;20112;-83
2023/07/14 09:27:25;;;;;;;13.32;7.57;;;;;;;41.62;37.28;97553.63;5041482;28;20480;-82
2023/07/14 09:29:51;;;;;;;15.40;7.65;;;;;;;42.22;35.58;97540.16;5062030;28;20087;-81
2023/07/14 09:32:37;;;;;;;11.82;6.60;;;;;;;42.77;34.85;97536.69;5055011;28;20082;-83
2023/07/14 09:35:20;;;;;;;16.60;7.28;;;;;;;42.99;35.35;97542.63;5039598;28;20033;-85
2023/07/14 09:38:10;;;;;;;12.30;7.40;;;;;;;43.00;34.99;97535.00;5072290;28;20024;-85
2023/07/14 09:40:36;;;;;;;13.85;7.45;;;;;;;41.78;36.70;97545.94;5054927;28;20036;-85
2023/07/14 09:43:06;;;;;;;15.15;7.53;;;;;;;42.18;36.55;97536.28;5056569;28;20028;-84
2023/07/14 09:45:34;;;;;;;18.85;8.30;;;;;;;42.79;35.28;97534.44;5063480;28;20035;-84
2023/07/14 09:48:05;;;;;;;15.90;7.70;;;;;;;43.11;34.72;97530.88;5052015;28;20028;-85
2023/07/14 09:50:31;;;;;;;;;;;;;;;43.41;34.33;97524.00;5044875;28;20420;-85
2023/07/14 09:53:04;;;;;;;16.15;8.15;;;;;;;43.48;34.25;97524.41;5071876;28;19920;-82
2023/07/14 09:55:41;;;;;;;11.80;7.18;;;;;;;43.59;33.48;97521.13;5063618;28;20047;-83
2023/07/14 09:58:12;;;;;;;22.40;8.52;;;;;;;43.54;34.67;97529.66;5035345;28;20081;-83
2023/07/14 10:00:40;;;;;;;12.90;7.88;;;;;;;43.53;33.72;97530.81;5067299;28;20541;-83
2023/07/14 10:03:11;;;;;;;15.65;8.20;;;;;;;43.27;34.91;97526.72;5057596;28;20032;-84
2023/07/14 10:05:51;;;;;;;17.55;8.50;;;;;;;41.92;36.15;97522.47;5063732;28;20476;-83
2023/07/14 10:08:26;;;;;;;11.60;7.97;;;;;;;41.63;35.82;97504.69;5053630;28;20033;-84
2023/07/14 10:10:51;;;;;;;26.13;7.72;;;;;;;43.32;34.73;97515.34;5071418;28;20032;-82
2023/07/14 10:13:21;;;;;;;16.90;9.63;;;;;;;44.24;33.72;97505.00;5072947;28;20032;-83
2023/07/14 10:15:53;;;;;;;15.88;9.20;;;;;;;44.69;33.61;97508.06;5047248;28;20502;-83
2023/07/14 10:18:19;;;;;;;15.07;8.30;;;;;;;43.54;33.93;97512.75;5072083;28;20033;-83
2023/07/14 10:21:04;;;;;;;17.75;8.35;;;;;;;42.65;35.15;97505.31;5072040;28;20048;-83
2023/07/14 10:23:29;;;;;;;18.48;8.85;;;;;;;43.40;34.49;97514.69;5059241;28;20047;-83
2023/07/14 10:25:55;;;;;;;14.43;8.13;;;;;;;43.40;34.63;97502.59;5065854;28;20032;-83
2023/07/14 10:28:27;;;;;;;12.07;8.15;;;;;;;43.93;33.90;97503.09;5063253;28;20049;-83
2023/07/14 10:30:55;;;;;;;13.30;7.95;;;;;;;44.03;34.01;97498.06;5071643;28;20125;-83
2023/07/14 10:33:51;;;;;;;22.20;8.90;;;;;;;44.22;33.43;97498.84;5038016;28;20043;-84
2023/07/14 10:36:21;;;;;;;26.45;12.55;;;;;;;44.43;32.40;97484.31;5049932;28;20029;-82
2023/07/14 10:38:57;;;;;;;11.98;7.85;;;;;;;43.20;33.82;97483.97;5068525;28;20032;-82
2023/07/14 10:41:24;;;;;;;19.08;8.23;;;;;;;43.91;33.56;97483.63;5053900;28;20021;-82
2023/07/14 10:44:16;;;;;;;14.27;7.85;;;;;;;46.01;31.79;97486.78;5046506;28;20033;-82
2023/07/14 10:46:46;;;;;;;12.70;8.15;;;;;;;44.89;32.93;97482.19;5038274;28;20356;-82
2023/07/14 10:49:15;;;;;;;13.32;7.85;;;;;;;44.69;32.88;97479.84;5061367;28;20028;-80
2023/07/14 10:51:51;;;;;;;16.00;8.10;;;;;;;43.75;34.56;97476.56;5065676;28;20044;-81
2023/07/14 10:54:33;;;;;;;10.95;8.00;;;;;;;45.04;33.17;97484.69;5039291;28;20090;-81
2023/07/14 10:57:03;;;;;;;15.00;8.40;;;;;;;45.37;32.96;97481.69;5058077;28;20024;-82
2023/07/14 10:59:39;;;;;;;17.02;8.57;;;;;;;45.35;33.51;97479.16;5047960;28;20029;-82
2023/07/14 11:02:13;;;;;;;17.45;8.70;;;;;;;45.53;32.23;97482.97;5059379;28;20064;-82
2023/07/14 11:04:45;;;;;;;18.35;8.15;;;;;;;46.08;31.38;97466.53;5062828;28;20021;-82
2023/07/14 11:07:17;;;;;;;15.48;8.23;;;;;;;45.95;30.88;97465.44;5053782;28;20500;-81
2023/07/14 11:09:42;;;;;;;15.68;8.50;;;;;;;45.45;31.21;97466.75;5067652;28;20181;-81
2023/07/14 11:12:24;;;;;;;14.00;8.27;;;;;;;44.94;32.45;97467.16;5051674;28;20024;-80
2023/07/14 11:14:54;;;;;;;15.75;8.32;;;;;;;45.45;31.91;97466.75;5035721;28;20037;-81
2023/07/14 11:17:43;;;;;;;17.85;8.13;;;;;;;45.95;31.50;97461.78;5055230;28;20047;-81
2023/07/14 11:20:17;;;;;;;14.95;8.55;;;;;;;45.83;31.02;97459.56;5049834;28;20043;-81
2023/07/14 11:22:54;;;;;;;12.73;7.75;;;;;;;46.01;30.84;97455.66;5067067;28;20024;-81
2023/07/14 11:25:44;;;;;;;14.93;9.10;;;;;;;45.81;30.91;97452.56;5064473;28;20052;-80
2023/07/14 11:28:31;;;;;;;14.13;6.82;;;;;;;46.39;30.74;97441.84;5041576;28;20049;-74
2023/07/14 11:30:59;;;;;;;23.00;7.90;;;;;;;45.56;30.83;97449.22;5060028;28;20108;-74
2023/07/14 11:33:34;;;;;;;26.77;9.10;;;;;;;45.42;31.02;97453.28;5044894;28;20024;-74